createdAt,value
2023-07-11T00:01:19.495Z,101761.50
2023-07-11T00:03:47.380Z,101759.69
2023-07-11T00:06:19.545Z,101767.69
2023-07-11T00:08:47.374Z,101769.47
2023-07-11T00:11:17.875Z,101773.91
2023-07-11T00:13:45.416Z,101766.78
2023-07-11T00:16:15.424Z,101765.00
2023-07-11T00:18:45.268Z,101769.44
2023-07-11T00:21:12.966Z,101758.84
2023-07-11T00:23:42.288Z,101755.31
2023-07-11T00:26:10.648Z,101748.22
2023-07-11T00:28:38.342Z,101756.25
2023-07-11T00:31:05.790Z,101750.03
2023-07-11T00:33:34.185Z,101744.75
2023-07-11T00:36:01.600Z,101745.69
2023-07-11T00:38:29.102Z,101745.72
2023-07-11T00:40:58.048Z,101738.66
2023-07-11T00:43:25.350Z,101734.28
2023-07-11T00:46:14.064Z,101729.91
2023-07-11T00:48:48.988Z,101731.69
2023-07-11T00:51:30.598Z,101729.91
2023-07-11T00:53:58.934Z,101729.03
2023-07-11T00:56:30.431Z,101733.44
2023-07-11T00:58:58.869Z,101732.56
2023-07-11T01:01:27.225Z,101729.91
2023-07-11T01:03:55.703Z,101726.38
2023-07-11T01:06:28.265Z,101720.13
2023-07-11T01:08:57.920Z,101718.38
2023-07-11T01:11:28.064Z,101724.56
2023-07-11T01:13:55.813Z,101717.44
2023-07-11T01:16:23.882Z,101705.00
2023-07-11T01:18:51.572Z,101706.78
2023-07-11T01:21:20.177Z,101710.28
2023-07-11T01:23:48.899Z,101714.69
2023-07-11T01:26:17.137Z,101719.16
2023-07-11T01:28:46.811Z,101699.56
2023-07-11T01:31:15.044Z,101694.25
2023-07-11T01:33:42.943Z,101689.84
2023-07-11T01:36:10.916Z,101689.84
2023-07-11T01:38:38.659Z,101688.13
2023-07-11T01:41:06.056Z,101675.69
2023-07-11T01:43:33.998Z,101676.63
2023-07-11T01:46:01.587Z,101677.56
2023-07-11T01:48:30.908Z,101679.31
2023-07-11T01:50:58.287Z,101668.66
2023-07-11T01:53:25.763Z,101678.44
2023-07-11T01:55:57.965Z,101678.44
2023-07-11T01:58:27.355Z,101664.25
2023-07-11T02:00:56.655Z,101667.84
2023-07-11T02:03:25.921Z,101661.59
2023-07-11T02:05:56.713Z,101654.47
2023-07-11T02:08:24.115Z,101652.72
2023-07-11T02:10:51.645Z,101645.59
2023-07-11T02:13:20.104Z,101642.03
2023-07-11T02:15:48.261Z,101638.47
2023-07-11T02:18:15.744Z,101631.38
2023-07-11T02:20:46.593Z,101635.81
2023-07-11T02:23:16.541Z,101627.81
2023-07-11T02:25:44.129Z,101620.63
2023-07-11T02:28:11.763Z,101619.72
2023-07-11T02:30:39.364Z,101613.47
2023-07-11T02:33:06.739Z,101604.56
2023-07-11T02:35:34.244Z,101608.97
2023-07-11T02:38:02.246Z,101606.31
2023-07-11T02:40:29.671Z,101604.53
2023-07-11T02:42:57.168Z,101598.31
2023-07-11T02:45:24.766Z,101587.66
2023-07-11T02:47:52.133Z,101575.22
2023-07-11T02:50:19.671Z,101579.69
2023-07-11T02:52:48.514Z,101581.47
2023-07-11T02:55:15.928Z,101571.72
2023-07-11T02:57:44.603Z,101569.97
2023-07-11T03:00:12.666Z,101570.91
2023-07-11T03:02:40.377Z,101570.00
2023-07-11T03:05:09.530Z,101577.13
2023-07-11T03:07:37.175Z,101569.13
2023-07-11T03:10:04.975Z,101570.91
2023-07-11T03:12:32.317Z,101553.13
2023-07-11T03:15:02.747Z,101557.59
2023-07-11T03:17:31.768Z,101551.34
2023-07-11T03:19:59.270Z,101543.34
2023-07-11T03:22:28.136Z,101543.34
2023-07-11T03:24:55.677Z,101541.59
2023-07-11T03:27:24.361Z,101528.22
2023-07-11T03:29:51.767Z,101521.16
2023-07-11T03:32:19.845Z,101522.03
2023-07-11T03:34:54.230Z,101506.03
2023-07-11T03:37:26.583Z,101506.06
2023-07-11T03:39:54.422Z,101501.59
2023-07-11T03:42:21.965Z,101493.59
2023-07-11T03:44:49.334Z,101496.25
2023-07-11T03:47:16.780Z,101498.03
2023-07-11T03:49:44.434Z,101501.56
2023-07-11T03:52:11.660Z,101497.09
2023-07-11T03:54:39.376Z,101492.69
2023-07-11T03:57:06.833Z,101494.41
2023-07-11T03:59:34.407Z,101484.63
2023-07-11T04:02:01.656Z,101481.06
2023-07-11T04:04:29.188Z,101481.94
2023-07-11T04:06:57.481Z,101488.09
2023-07-11T04:09:24.795Z,101473.88
2023-07-11T04:11:52.874Z,101485.44
2023-07-11T04:14:20.188Z,101481.81
2023-07-11T04:16:47.860Z,101474.69
2023-07-11T04:19:15.401Z,101479.09
2023-07-11T04:21:42.767Z,101466.63
2023-07-11T04:24:10.114Z,101475.47
2023-07-11T04:26:37.921Z,101474.44
2023-07-11T04:29:05.252Z,101469.91
2023-07-11T04:31:32.985Z,101462.63
2023-07-11T04:34:00.291Z,101458.84
2023-07-11T04:36:28.305Z,101461.34
2023-07-11T04:38:55.924Z,101462.03
2023-07-11T04:41:23.423Z,101466.78
2023-07-11T04:43:51.087Z,101466.75
2023-07-11T04:46:18.442Z,101462.72
2023-07-11T04:48:47.669Z,101457.22
2023-07-11T04:51:15.875Z,101454.53
2023-07-11T04:53:45.316Z,101455.53
2023-07-11T04:56:13.096Z,101448.63
2023-07-11T04:58:40.574Z,101453.19
2023-07-11T05:01:11.077Z,101445.91
2023-07-11T05:03:38.838Z,101443.22
2023-07-11T05:06:08.089Z,101436.16
2023-07-11T05:08:36.078Z,101422.75
2023-07-11T05:11:12.405Z,101426.28
2023-07-11T05:13:41.266Z,101411.09
2023-07-11T05:16:12.197Z,101425.38
2023-07-11T05:18:45.212Z,101412.31
2023-07-11T05:21:15.138Z,101408.22
2023-07-11T05:23:42.873Z,101398.09
2023-07-11T05:26:10.968Z,101408.88
2023-07-11T05:28:38.563Z,101399.75
2023-07-11T05:31:07.739Z,101396.72
2023-07-11T05:33:35.648Z,101401.66
2023-07-11T05:36:10.803Z,101389.28
2023-07-11T05:38:38.107Z,101380.66
2023-07-11T05:41:06.641Z,101390.47
2023-07-11T05:43:35.710Z,101384.44
2023-07-11T05:46:03.954Z,101391.16
2023-07-11T05:48:31.637Z,101379.22
2023-07-11T05:51:07.876Z,101375.41
2023-07-11T05:53:35.782Z,101376.34
2023-07-11T05:56:03.630Z,101374.75
2023-07-11T05:58:32.516Z,101368.56
2023-07-11T06:01:00.845Z,101365.13
2023-07-11T06:03:30.830Z,101362.16
2023-07-11T06:06:03.331Z,101352.03
2023-07-11T06:08:32.366Z,101355.47
2023-07-11T06:11:02.504Z,101347.00
2023-07-11T06:13:31.210Z,101352.97
2023-07-11T06:16:16.671Z,101348.09
2023-07-11T06:18:44.898Z,101348.31
2023-07-11T06:21:12.867Z,101339.94
2023-07-11T06:23:40.561Z,101343.00
2023-07-11T06:26:10.385Z,101337.19
2023-07-11T06:28:39.114Z,101329.59
2023-07-11T06:31:08.405Z,101320.78
2023-07-11T06:33:36.428Z,101308.94
2023-07-11T06:36:05.961Z,101305.88
2023-07-11T06:38:33.629Z,101308.13
2023-07-11T06:41:01.329Z,101307.56
2023-07-11T06:43:30.380Z,101303.19
2023-07-11T06:45:59.950Z,101299.03
2023-07-11T06:48:30.032Z,101300.38
2023-07-11T06:51:04.239Z,101300.25
2023-07-11T06:53:34.655Z,101299.28
2023-07-11T06:56:02.695Z,101299.34
2023-07-11T06:58:33.068Z,101299.63
2023-07-11T07:01:04.014Z,101303.34
2023-07-11T07:03:33.029Z,101292.53
2023-07-11T07:06:06.935Z,101294.78
2023-07-11T07:08:34.396Z,101293.34
2023-07-11T07:11:01.883Z,101297.41
2023-07-11T07:13:29.806Z,101293.91
2023-07-11T07:15:59.577Z,101286.13
2023-07-11T07:18:33.703Z,101282.69
2023-07-11T07:21:01.844Z,101279.03
2023-07-11T07:23:29.734Z,101276.44
2023-07-11T07:25:59.999Z,101276.16
2023-07-11T07:28:28.806Z,101276.75
2023-07-11T07:30:57.603Z,101272.00
2023-07-11T07:33:27.471Z,101277.97
2023-07-11T07:36:04.426Z,101276.97
2023-07-11T07:38:33.120Z,101273.19
2023-07-11T07:41:08.040Z,101276.56
2023-07-11T07:43:46.241Z,101273.34
2023-07-11T07:46:16.659Z,101272.66
2023-07-11T07:48:46.982Z,101267.03
2023-07-11T07:51:17.685Z,101263.16
2023-07-11T07:53:45.820Z,101259.44
2023-07-11T07:56:16.442Z,101255.50
2023-07-11T07:58:45.024Z,101245.38
2023-07-11T08:01:14.654Z,101253.06
2023-07-11T08:03:42.333Z,101243.88
2023-07-11T08:06:16.641Z,101239.28
2023-07-11T08:08:48.960Z,101241.25
2023-07-11T08:11:20.876Z,101234.41
2023-07-11T08:13:59.261Z,101237.19
2023-07-11T08:16:33.029Z,101224.53
2023-07-11T08:19:06.868Z,101223.44
2023-07-11T08:21:37.254Z,101218.75
2023-07-11T08:24:07.830Z,101213.84
2023-07-11T08:26:35.992Z,101207.03
2023-07-11T08:29:10.106Z,101206.56
2023-07-11T08:31:44.185Z,101204.38
2023-07-11T08:34:11.903Z,101197.69
2023-07-11T08:36:40.587Z,101200.50
2023-07-11T08:39:09.117Z,101200.38
2023-07-11T08:41:49.086Z,101197.00
2023-07-11T08:44:19.842Z,101200.78
2023-07-11T08:46:56.962Z,101200.88
2023-07-11T08:49:33.605Z,101196.56
2023-07-11T08:52:03.902Z,101189.69
2023-07-11T08:54:36.835Z,101182.72
2023-07-11T08:57:04.906Z,101172.78
2023-07-11T08:59:54.772Z,101184.13
2023-07-11T09:02:30.769Z,101174.78
2023-07-11T09:05:00.308Z,101171.91
2023-07-11T09:07:44.275Z,101163.59
2023-07-11T09:10:26.669Z,101158.25
2023-07-11T09:13:15.088Z,101156.38
2023-07-11T09:15:59.506Z,101155.75
2023-07-11T09:18:58.037Z,101157.72
2023-07-11T09:22:07.406Z,101152.50
2023-07-11T09:25:12.440Z,101145.72
2023-07-11T09:27:49.380Z,101140.16
2023-07-11T09:30:32.967Z,101138.88
2023-07-11T09:35:51.969Z,101137.13
2023-07-11T09:38:41.978Z,101143.47
2023-07-11T09:41:40.858Z,101143.59
2023-07-11T09:44:16.211Z,101139.59
2023-07-11T09:46:43.503Z,101144.06
2023-07-11T09:49:19.724Z,101133.94
2023-07-11T09:51:57.075Z,101129.09
2023-07-11T09:54:45.494Z,101135.28
2023-07-11T09:57:19.805Z,101130.75
2023-07-11T10:00:16.020Z,101130.22
2023-07-11T10:02:48.213Z,101117.69
2023-07-11T10:05:19.269Z,101122.81
2023-07-11T10:07:48.906Z,101121.72
2023-07-11T10:10:16.587Z,101110.56
2023-07-11T10:12:45.159Z,101115.19
2023-07-11T10:15:17.676Z,101108.50
2023-07-11T10:17:46.379Z,101113.63
2023-07-11T10:20:20.037Z,101116.72
2023-07-11T10:22:54.755Z,101099.88
2023-07-11T10:25:32.275Z,101096.00
2023-07-11T10:28:32.581Z,101097.34
2023-07-11T10:31:22.527Z,101095.97
2023-07-11T10:34:28.978Z,101105.84
2023-07-11T10:37:12.316Z,101102.94
2023-07-11T10:39:49.021Z,101105.19
2023-07-11T10:42:16.429Z,101101.06
2023-07-11T10:44:48.817Z,101100.88
2023-07-11T10:47:29.054Z,101092.75
2023-07-11T10:49:58.297Z,101087.66
2023-07-11T10:52:27.933Z,101095.56
2023-07-11T10:55:08.992Z,101098.75
2023-07-11T10:57:45.513Z,101092.34
2023-07-11T11:00:17.907Z,101088.28
2023-07-11T11:03:13.554Z,101092.06
2023-07-11T11:06:11.596Z,101081.78
2023-07-11T11:08:57.074Z,101087.31
2023-07-11T11:12:03.943Z,101093.28
2023-07-11T11:14:53.451Z,101085.00
2023-07-11T11:17:58.466Z,101087.63
2023-07-11T11:21:18.404Z,101078.88
2023-07-11T11:24:09.872Z,101067.09
2023-07-11T11:27:01.351Z,101066.81
2023-07-11T11:29:34.733Z,101062.41
2023-07-11T11:32:26.324Z,101061.97
2023-07-11T11:35:24.394Z,101067.69
2023-07-11T11:38:06.951Z,101063.72
2023-07-11T11:40:46.832Z,101062.94
2023-07-11T11:43:20.370Z,101056.63
2023-07-11T11:51:12.871Z,101050.19
2023-07-11T11:53:48.201Z,101039.41
2023-07-11T11:56:24.642Z,101040.06
2023-07-11T11:59:05.553Z,101033.66
2023-07-11T12:01:54.253Z,101035.72
2023-07-11T12:04:31.262Z,101041.91
2023-07-11T12:07:07.350Z,101033.78
2023-07-11T12:09:34.733Z,101034.63
2023-07-11T12:12:06.664Z,101028.41
2023-07-11T12:14:54.017Z,101023.13
2023-07-11T12:17:34.587Z,101021.84
2023-07-11T12:20:02.023Z,101027.69
2023-07-11T12:22:48.583Z,101030.50
2023-07-11T12:25:24.618Z,101026.72
2023-07-11T12:27:54.852Z,101029.09
2023-07-11T12:30:28.416Z,101025.97
2023-07-11T12:33:15.883Z,101027.03
2023-07-11T12:35:44.234Z,101022.72
2023-07-11T12:38:29.557Z,101029.22
2023-07-11T12:41:43.837Z,101017.94
2023-07-11T12:44:17.161Z,101026.16
2023-07-11T12:46:49.959Z,101019.56
2023-07-11T12:49:40.375Z,101024.56
2023-07-11T12:52:13.784Z,101028.56
2023-07-11T12:54:43.832Z,101031.50
2023-07-11T12:57:24.630Z,101019.09
2023-07-11T12:59:52.265Z,101017.38
2023-07-11T13:02:27.281Z,101020.97
2023-07-11T13:04:58.325Z,101025.69
2023-07-11T13:07:31.963Z,101031.97
2023-07-11T13:10:02.362Z,101023.59
2023-07-11T13:12:40.707Z,101020.88
2023-07-11T13:15:17.196Z,101029.13
2023-07-11T13:17:47.616Z,101020.34
2023-07-11T13:20:24.654Z,101020.13
2023-07-11T13:22:53.338Z,101013.72
2023-07-11T13:25:33.595Z,101012.97
2023-07-11T13:28:01.205Z,101008.00
2023-07-11T13:30:36.607Z,101010.69
2023-07-11T13:33:23.787Z,101007.09
2023-07-11T13:35:54.919Z,101003.41
2023-07-11T13:38:33.144Z,101004.69
2023-07-11T13:41:01.312Z,101009.25
2023-07-11T13:43:28.796Z,101008.25
2023-07-11T13:46:00.238Z,101001.53
2023-07-11T13:48:30.879Z,101009.13
2023-07-11T13:51:19.758Z,101000.97
2023-07-11T13:53:56.712Z,101008.16
2023-07-11T13:56:24.923Z,101008.69
2023-07-11T13:58:53.902Z,101010.97
2023-07-11T14:01:23.876Z,101002.63
2023-07-11T14:03:53.491Z,101003.94
2023-07-11T14:06:22.124Z,101009.03
2023-07-11T14:08:50.354Z,100997.88
2023-07-11T14:11:31.748Z,101000.16
2023-07-11T14:13:59.122Z,101008.38
2023-07-11T14:16:28.031Z,100997.94
2023-07-11T14:18:56.478Z,101002.28
2023-07-11T14:21:24.860Z,101007.34
2023-07-11T14:23:52.203Z,101005.16
2023-07-11T14:26:19.553Z,101003.06
2023-07-11T14:28:53.534Z,101009.13
2023-07-11T14:31:22.411Z,101012.03
2023-07-11T14:33:49.824Z,101003.25
2023-07-11T14:36:17.076Z,101003.34
2023-07-11T14:38:44.498Z,101014.50
2023-07-11T14:41:12.983Z,101014.94
2023-07-11T14:43:40.534Z,101007.06
2023-07-11T14:46:07.914Z,101017.69
2023-07-11T14:48:35.146Z,101005.63
2023-07-11T14:51:05.794Z,101010.72
2023-07-11T14:53:40.645Z,101006.28
2023-07-11T14:58:58.045Z,101006.75
2023-07-11T15:01:25.925Z,101005.78
2023-07-11T15:16:25.181Z,101001.22
2023-07-11T15:18:52.514Z,100999.78
2023-07-11T15:21:19.926Z,101001.31
2023-07-11T15:23:48.144Z,101000.06
2023-07-11T15:26:15.570Z,100995.25
2023-07-11T15:28:42.801Z,101003.47
2023-07-11T15:31:15.712Z,101009.09
2023-07-11T15:33:45.593Z,101010.47
2023-07-11T15:36:12.922Z,100998.66
2023-07-11T15:38:40.354Z,100998.47
2023-07-11T15:41:15.771Z,100989.75
2023-07-11T15:43:44.500Z,101002.25
2023-07-11T15:46:22.442Z,101001.78
2023-07-11T15:48:54.980Z,100997.03
2023-07-11T15:51:22.484Z,100996.38
2023-07-11T15:53:50.243Z,100990.38
2023-07-11T15:56:18.105Z,100993.47
2023-07-11T15:58:45.400Z,100992.88
2023-07-11T16:01:12.779Z,100997.81
2023-07-11T16:03:40.241Z,101006.41
2023-07-11T16:06:14.247Z,101002.34
2023-07-11T16:08:42.240Z,100995.66
2023-07-11T16:11:11.696Z,100995.91
2023-07-11T16:13:39.541Z,100991.34
2023-07-11T16:16:25.227Z,100989.56
2023-07-11T16:18:53.043Z,100988.09
2023-07-11T16:21:22.277Z,100994.38
2023-07-11T16:23:49.598Z,100995.06
2023-07-11T16:26:25.715Z,100996.28
2023-07-11T16:28:53.220Z,100997.94
2023-07-11T16:31:20.583Z,100992.44
2023-07-11T16:33:47.920Z,100996.22
2023-07-11T16:36:16.891Z,100985.94
2023-07-11T16:38:44.346Z,100992.63
2023-07-11T16:41:11.876Z,100987.97
2023-07-11T16:43:39.220Z,100989.97
2023-07-11T16:46:06.570Z,100978.56
2023-07-11T16:48:33.949Z,100983.09
2023-07-11T16:51:05.226Z,100977.09
2023-07-11T16:53:33.545Z,100972.06
2023-07-11T16:56:02.330Z,100965.09
2023-07-11T16:58:40.507Z,100971.53
2023-07-11T17:01:14.558Z,100983.53
2023-07-11T17:03:43.908Z,100976.06
2023-07-11T17:06:29.229Z,100958.06
2023-07-11T17:08:58.321Z,100947.06
2023-07-11T17:11:26.020Z,100949.59
2023-07-11T17:13:53.657Z,100936.91
2023-07-11T17:16:24.578Z,100948.75
2023-07-11T17:18:51.974Z,100947.97
2023-07-11T17:21:21.016Z,100946.13
2023-07-11T17:23:48.915Z,100942.66
2023-07-11T17:26:16.724Z,100938.31
2023-07-11T17:28:44.128Z,100940.13
2023-07-11T17:31:16.752Z,100929.41
2023-07-11T17:33:44.151Z,100931.25
2023-07-11T17:36:13.786Z,100929.41
2023-07-11T17:38:41.827Z,100925.94
2023-07-11T17:41:09.627Z,100926.22
2023-07-11T17:43:39.112Z,100926.69
2023-07-11T17:46:41.107Z,100933.22
2023-07-11T17:49:01.777Z,100935.38
2023-07-11T17:51:29.375Z,100940.28
2023-07-11T17:53:56.947Z,100932.53
2023-07-11T17:56:24.584Z,100930.06
2023-07-11T17:58:53.799Z,100926.06
2023-07-11T18:01:21.984Z,100923.63
2023-07-11T18:03:50.058Z,100926.66
2023-07-11T18:06:24.397Z,100929.69
2023-07-11T18:08:51.858Z,100923.75
2023-07-11T18:11:19.110Z,100913.28
2023-07-11T18:13:49.312Z,100919.81
2023-07-11T18:16:23.157Z,100911.88
2023-07-11T18:18:50.762Z,100905.69
2023-07-11T18:21:19.147Z,100911.94
2023-07-11T18:23:46.622Z,100915.63
2023-07-11T18:26:20.065Z,100924.88
2023-07-11T18:28:49.683Z,100913.22
2023-07-11T18:31:24.116Z,100910.44
2023-07-11T18:33:53.555Z,100906.19
2023-07-11T18:36:24.715Z,100903.66
2023-07-11T18:38:53.836Z,100903.84
2023-07-11T18:41:21.414Z,100894.00
2023-07-11T18:43:48.777Z,100892.56
2023-07-11T18:46:18.571Z,100892.75
2023-07-11T18:48:47.278Z,100895.59
2023-07-11T18:51:16.400Z,100899.25
2023-07-11T18:53:44.886Z,100903.03
2023-07-11T18:56:14.870Z,100902.34
2023-07-11T18:58:42.227Z,100898.16
2023-07-11T19:01:11.942Z,100898.47
2023-07-11T19:03:39.926Z,100885.41
2023-07-11T19:06:17.596Z,100887.41
2023-07-11T19:08:48.146Z,100883.22
2023-07-11T19:11:17.749Z,100877.16
2023-07-11T19:13:46.258Z,100870.16
2023-07-11T19:16:26.027Z,100861.47
2023-07-11T19:18:53.880Z,100865.28
2023-07-11T19:21:21.206Z,100854.66
2023-07-11T19:23:48.615Z,100862.09
2023-07-11T19:26:18.937Z,100867.72
2023-07-11T19:28:46.989Z,100859.00
2023-07-11T19:31:16.422Z,100852.97
2023-07-11T19:33:44.106Z,100856.84
2023-07-11T19:36:18.005Z,100867.03
2023-07-11T19:38:50.019Z,100864.66
2023-07-11T19:41:27.302Z,100863.94
2023-07-11T19:43:55.305Z,100860.59
2023-07-11T19:46:25.389Z,100858.97
2023-07-11T19:49:02.442Z,100848.34
2023-07-11T19:51:30.021Z,100845.81
2023-07-11T19:53:57.608Z,100852.13
2023-07-11T19:56:27.599Z,100838.78
2023-07-11T20:01:26.616Z,100839.00
2023-07-11T20:03:55.435Z,100840.91
2023-07-11T20:06:24.661Z,100832.91
2023-07-11T20:08:53.318Z,100818.69
2023-07-11T20:11:22.605Z,100804.66
2023-07-11T20:13:50.474Z,100813.88
2023-07-11T20:16:24.881Z,100819.63
2023-07-11T20:18:53.346Z,100821.75
2023-07-11T20:21:24.970Z,100824.81
2023-07-11T20:23:55.825Z,100822.38
2023-07-11T20:26:23.368Z,100820.84
2023-07-11T20:28:55.917Z,100817.53
2023-07-11T20:31:24.372Z,100808.66
2023-07-11T20:33:51.934Z,100804.22
2023-07-11T20:36:29.566Z,100800.84
2023-07-11T20:38:58.340Z,100793.09
2023-07-11T20:41:26.726Z,100799.59
2023-07-11T20:43:54.355Z,100790.94
2023-07-11T20:46:23.792Z,100798.38
2023-07-11T20:48:52.061Z,100789.63
2023-07-11T20:51:21.495Z,100792.53
2023-07-11T20:53:49.460Z,100798.09
2023-07-11T20:56:23.606Z,100790.16
2023-07-11T20:58:53.339Z,100784.00
2023-07-11T21:01:23.941Z,100770.75
2023-07-11T21:03:52.551Z,100760.16
2023-07-11T21:06:42.533Z,100757.63
2023-07-11T21:09:15.439Z,100772.88
2023-07-11T21:11:47.660Z,100759.56
2023-07-11T21:14:15.108Z,100753.31
2023-07-11T21:16:42.616Z,100764.94
2023-07-11T21:19:21.148Z,100801.47
2023-07-11T21:21:50.511Z,100785.16
2023-07-11T21:24:18.273Z,100813.59
2023-07-11T21:26:45.665Z,100855.56
2023-07-11T21:29:14.029Z,100871.06
2023-07-11T21:31:42.064Z,100809.91
2023-07-11T21:34:10.070Z,100781.03
2023-07-11T21:36:37.384Z,100792.97
2023-07-11T21:39:05.190Z,100806.63
2023-07-11T21:41:32.537Z,100819.50
2023-07-11T21:43:59.932Z,100820.72
2023-07-11T21:46:31.154Z,100814.72
2023-07-11T21:49:04.680Z,100808.78
2023-07-11T21:51:33.513Z,100822.34
2023-07-11T21:54:01.027Z,100815.38
2023-07-11T21:56:31.037Z,100811.88
2023-07-11T21:59:02.221Z,100809.19
2023-07-11T22:01:29.965Z,100823.59
2023-07-11T22:03:58.477Z,100859.56
2023-07-11T22:06:30.882Z,100854.63
2023-07-11T22:09:00.681Z,100822.00
2023-07-11T22:11:28.014Z,100846.34
2023-07-11T22:13:55.275Z,100828.81
2023-07-11T22:16:26.052Z,100842.44
2023-07-11T22:18:54.660Z,100842.75
2023-07-11T22:21:24.142Z,100834.09
2023-07-11T22:23:51.524Z,100812.06
2023-07-11T22:26:22.426Z,100806.91
2023-07-11T22:28:51.317Z,100804.47
2023-07-11T22:31:21.154Z,100792.25
2023-07-11T22:33:50.363Z,100774.44
2023-07-11T22:36:18.072Z,100753.22
2023-07-11T22:38:45.367Z,100758.69
2023-07-11T22:41:13.067Z,100776.44
2023-07-11T22:43:40.784Z,100778.09
2023-07-11T22:46:16.562Z,100797.75
2023-07-11T22:48:44.001Z,100811.25
2023-07-11T22:51:14.820Z,100802.41
2023-07-11T22:53:43.139Z,100788.03
2023-07-11T22:56:24.356Z,100763.97
2023-07-11T22:58:53.530Z,100765.84
2023-07-11T23:01:23.104Z,100748.97
2023-07-11T23:03:50.589Z,100752.56
2023-07-11T23:06:39.869Z,100759.66
2023-07-11T23:09:13.466Z,100773.03
2023-07-11T23:11:42.123Z,100773.91
2023-07-11T23:14:09.427Z,100780.19
2023-07-11T23:16:37.162Z,100782.03
2023-07-11T23:19:06.501Z,100799.06
2023-07-11T23:21:34.657Z,100794.81
2023-07-11T23:24:02.596Z,100778.00
2023-07-11T23:26:30.138Z,100779.00
2023-07-11T23:28:58.030Z,100762.31
2023-07-11T23:31:25.702Z,100759.81
2023-07-11T23:33:53.112Z,100766.91
2023-07-11T23:36:23.128Z,100758.03
2023-07-11T23:38:52.120Z,100741.16
2023-07-11T23:41:20.273Z,100737.59
2023-07-11T23:43:48.682Z,100745.63
2023-07-11T23:46:24.070Z,100756.31
2023-07-11T23:48:52.249Z,100755.31
2023-07-11T23:51:21.565Z,100758.00
2023-07-11T23:53:50.742Z,100751.75
2023-07-11T23:56:36.726Z,100764.25
2023-07-11T23:59:05.102Z,100769.72
